sensor_id;sensor_type;location;lat;lon;timestamp;P1;durP1;ratioP1;P2;durP2;ratioP2
56073;SDS011;41950;55.840;37.442;2023-08-08T00:00:40;6.00;;;2.20;;
56073;SDS011;41950;55.840;37.442;2023-08-08T00:03:05;3.65;;;2.55;;
56073;SDS011;41950;55.840;37.442;2023-08-08T00:05:31;4.18;;;2.85;;
56073;SDS011;41950;55.840;37.442;2023-08-08T00:07:57;4.55;;;2.47;;
56073;SDS011;41950;55.840;37.442;2023-08-08T00:10:22;3.17;;;2.20;;
56073;SDS011;41950;55.840;37.442;2023-08-08T00:12:48;3.72;;;2.08;;
56073;SDS011;41950;55.840;37.442;2023-08-08T00:15:15;3.92;;;2.40;;
56073;SDS011;41950;55.840;37.442;2023-08-08T00:17:41;3.15;;;2.15;;
56073;SDS011;41950;55.840;37.442;2023-08-08T00:20:07;3.10;;;2.20;;
56073;SDS011;41950;55.840;37.442;2023-08-08T00:22:33;5.95;;;2.60;;
56073;SDS011;41950;55.840;37.442;2023-08-08T00:24:59;4.15;;;2.60;;
56073;SDS011;41950;55.840;37.442;2023-08-08T00:27:24;3.47;;;2.53;;
56073;SDS011;41950;55.840;37.442;2023-08-08T00:29:51;3.80;;;2.38;;
56073;SDS011;41950;55.840;37.442;2023-08-08T00:32:18;4.22;;;2.60;;
56073;SDS011;41950;55.840;37.442;2023-08-08T00:34:44;5.28;;;2.70;;
56073;SDS011;41950;55.840;37.442;2023-08-08T00:37:09;3.28;;;2.22;;
56073;SDS011;41950;55.840;37.442;2023-08-08T00:39:35;4.15;;;2.42;;
56073;SDS011;41950;55.840;37.442;2023-08-08T00:42:02;3.80;;;2.75;;
56073;SDS011;41950;55.840;37.442;2023-08-08T00:44:27;4.63;;;2.60;;
56073;SDS011;41950;55.840;37.442;2023-08-08T00:46:53;7.20;;;2.90;;
56073;SDS011;41950;55.840;37.442;2023-08-08T00:49:19;4.20;;;2.80;;
56073;SDS011;41950;55.840;37.442;2023-08-08T00:51:46;3.50;;;2.65;;
56073;SDS011;41950;55.840;37.442;2023-08-08T00:54:12;3.97;;;2.60;;
56073;SDS011;41950;55.840;37.442;2023-08-08T00:56:38;4.55;;;2.85;;
56073;SDS011;41950;55.840;37.442;2023-08-08T00:59:04;4.70;;;2.78;;
56073;SDS011;41950;55.840;37.442;2023-08-08T01:01:33;6.07;;;2.67;;
56073;SDS011;41950;55.840;37.442;2023-08-08T01:03:59;4.45;;;2.67;;
56073;SDS011;41950;55.840;37.442;2023-08-08T01:08:57;7.00;;;2.60;;
56073;SDS011;41950;55.840;37.442;2023-08-08T01:11:26;4.18;;;2.65;;
56073;SDS011;41950;55.840;37.442;2023-08-08T01:13:54;4.07;;;2.90;;
56073;SDS011;41950;55.840;37.442;2023-08-08T01:16:21;4.13;;;2.85;;
56073;SDS011;41950;55.840;37.442;2023-08-08T01:18:49;3.90;;;2.53;;
56073;SDS011;41950;55.840;37.442;2023-08-08T01:21:15;3.88;;;2.90;;
56073;SDS011;41950;55.840;37.442;2023-08-08T01:23:46;4.85;;;2.47;;
56073;SDS011;41950;55.840;37.442;2023-08-08T01:26:18;5.28;;;2.63;;
56073;SDS011;41950;55.840;37.442;2023-08-08T01:28:46;5.13;;;2.50;;
56073;SDS011;41950;55.840;37.442;2023-08-08T01:31:12;5.15;;;2.72;;
56073;SDS011;41950;55.840;37.442;2023-08-08T01:33:38;4.45;;;3.20;;
56073;SDS011;41950;55.840;37.442;2023-08-08T01:36:05;5.53;;;2.78;;
56073;SDS011;41950;55.840;37.442;2023-08-08T01:38:43;5.55;;;2.97;;
56073;SDS011;41950;55.840;37.442;2023-08-08T01:41:12;5.78;;;3.00;;
56073;SDS011;41950;55.840;37.442;2023-08-08T01:43:38;6.95;;;3.03;;
56073;SDS011;41950;55.840;37.442;2023-08-08T01:46:05;3.90;;;2.72;;
56073;SDS011;41950;55.840;37.442;2023-08-08T01:48:32;5.47;;;3.03;;
56073;SDS011;41950;55.840;37.442;2023-08-08T01:50:58;4.60;;;2.92;;
56073;SDS011;41950;55.840;37.442;2023-08-08T01:53:24;4.03;;;2.45;;
56073;SDS011;41950;55.840;37.442;2023-08-08T01:55:50;4.65;;;2.63;;
56073;SDS011;41950;55.840;37.442;2023-08-08T01:58:17;6.47;;;2.95;;
56073;SDS011;41950;55.840;37.442;2023-08-08T02:00:43;3.80;;;2.65;;
56073;SDS011;41950;55.840;37.442;2023-08-08T02:03:10;4.25;;;2.70;;
56073;SDS011;41950;55.840;37.442;2023-08-08T02:05:36;4.53;;;2.67;;
56073;SDS011;41950;55.840;37.442;2023-08-08T02:08:02;6.45;;;3.10;;
56073;SDS011;41950;55.840;37.442;2023-08-08T02:10:28;5.65;;;2.92;;
56073;SDS011;41950;55.840;37.442;2023-08-08T02:12:54;4.80;;;3.00;;
56073;SDS011;41950;55.840;37.442;2023-08-08T02:15:20;5.40;;;2.90;;
56073;SDS011;41950;55.840;37.442;2023-08-08T02:17:46;5.55;;;3.08;;
56073;SDS011;41950;55.840;37.442;2023-08-08T02:20:32;5.18;;;3.25;;
56073;SDS011;41950;55.840;37.442;2023-08-08T02:22:57;7.53;;;3.83;;
56073;SDS011;41950;55.840;37.442;2023-08-08T02:25:23;11.13;;;4.40;;
56073;SDS011;41950;55.840;37.442;2023-08-08T02:27:49;6.43;;;3.55;;
56073;SDS011;41950;55.840;37.442;2023-08-08T02:30:14;5.22;;;3.22;;
56073;SDS011;41950;55.840;37.442;2023-08-08T02:32:40;5.20;;;3.53;;
56073;SDS011;41950;55.840;37.442;2023-08-08T02:35:05;5.43;;;3.83;;
56073;SDS011;41950;55.840;37.442;2023-08-08T02:37:32;4.47;;;3.35;;
56073;SDS011;41950;55.840;37.442;2023-08-08T02:39:57;6.15;;;3.90;;
56073;SDS011;41950;55.840;37.442;2023-08-08T02:42:23;5.22;;;3.70;;
56073;SDS011;41950;55.840;37.442;2023-08-08T02:44:48;5.32;;;3.58;;
56073;SDS011;41950;55.840;37.442;2023-08-08T02:47:14;4.85;;;3.60;;
56073;SDS011;41950;55.840;37.442;2023-08-08T02:49:40;6.40;;;3.78;;
56073;SDS011;41950;55.840;37.442;2023-08-08T02:52:05;7.75;;;3.92;;
56073;SDS011;41950;55.840;37.442;2023-08-08T02:54:31;4.88;;;3.83;;
56073;SDS011;41950;55.840;37.442;2023-08-08T02:56:57;7.07;;;4.38;;
56073;SDS011;41950;55.840;37.442;2023-08-08T02:59:22;5.18;;;4.10;;
56073;SDS011;41950;55.840;37.442;2023-08-08T03:01:48;4.07;;;3.00;;
56073;SDS011;41950;55.840;37.442;2023-08-08T03:04:14;4.78;;;3.35;;
56073;SDS011;41950;55.840;37.442;2023-08-08T03:06:40;5.78;;;3.83;;
56073;SDS011;41950;55.840;37.442;2023-08-08T03:09:05;6.03;;;3.80;;
56073;SDS011;41950;55.840;37.442;2023-08-08T03:11:32;5.72;;;4.00;;
56073;SDS011;41950;55.840;37.442;2023-08-08T03:13:57;3.92;;;3.30;;
56073;SDS011;41950;55.840;37.442;2023-08-08T03:16:23;5.55;;;3.38;;
56073;SDS011;41950;55.840;37.442;2023-08-08T03:18:49;5.18;;;3.40;;
56073;SDS011;41950;55.840;37.442;2023-08-08T03:21:15;5.85;;;3.05;;
56073;SDS011;41950;55.840;37.442;2023-08-08T03:23:40;4.00;;;3.33;;
56073;SDS011;41950;55.840;37.442;2023-08-08T03:26:06;6.38;;;3.50;;
56073;SDS011;41950;55.840;37.442;2023-08-08T03:28:32;5.57;;;3.35;;
56073;SDS011;41950;55.840;37.442;2023-08-08T03:30:57;5.75;;;3.40;;
56073;SDS011;41950;55.840;37.442;2023-08-08T03:33:23;4.50;;;3.40;;
56073;SDS011;41950;55.840;37.442;2023-08-08T03:35:48;5.63;;;3.95;;
56073;SDS011;41950;55.840;37.442;2023-08-08T03:38:14;5.05;;;3.30;;
56073;SDS011;41950;55.840;37.442;2023-08-08T03:40:40;6.43;;;3.63;;
56073;SDS011;41950;55.840;37.442;2023-08-08T03:43:05;5.03;;;2.97;;
56073;SDS011;41950;55.840;37.442;2023-08-08T03:45:31;4.97;;;2.97;;
56073;SDS011;41950;55.840;37.442;2023-08-08T03:47:57;4.90;;;3.28;;
56073;SDS011;41950;55.840;37.442;2023-08-08T03:50:22;6.88;;;3.00;;
56073;SDS011;41950;55.840;37.442;2023-08-08T03:52:48;5.25;;;3.22;;
56073;SDS011;41950;55.840;37.442;2023-08-08T03:55:14;4.13;;;2.95;;
56073;SDS011;41950;55.840;37.442;2023-08-08T03:57:39;5.93;;;3.03;;
56073;SDS011;41950;55.840;37.442;2023-08-08T04:00:05;4.97;;;3.20;;
56073;SDS011;41950;55.840;37.442;2023-08-08T04:02:33;4.50;;;2.90;;
56073;SDS011;41950;55.840;37.442;2023-08-08T04:04:59;6.10;;;3.30;;
56073;SDS011;41950;55.840;37.442;2023-08-08T04:07:24;4.57;;;3.40;;
56073;SDS011;41950;55.840;37.442;2023-08-08T04:09:50;5.20;;;3.42;;
56073;SDS011;41950;55.840;37.442;2023-08-08T04:12:16;5.28;;;3.13;;
56073;SDS011;41950;55.840;37.442;2023-08-08T04:14:44;6.65;;;3.40;;
56073;SDS011;41950;55.840;37.442;2023-08-08T04:17:09;4.82;;;3.03;;
56073;SDS011;41950;55.840;37.442;2023-08-08T04:19:35;5.68;;;3.50;;
56073;SDS011;41950;55.840;37.442;2023-08-08T04:22:00;4.50;;;2.85;;
56073;SDS011;41950;55.840;37.442;2023-08-08T04:24:26;5.45;;;3.72;;
56073;SDS011;41950;55.840;37.442;2023-08-08T04:26:52;5.38;;;2.85;;
56073;SDS011;41950;55.840;37.442;2023-08-08T04:29:17;5.03;;;3.55;;
56073;SDS011;41950;55.840;37.442;2023-08-08T04:31:43;6.10;;;3.40;;
56073;SDS011;41950;55.840;37.442;2023-08-08T04:34:09;5.50;;;3.40;;
56073;SDS011;41950;55.840;37.442;2023-08-08T04:36:34;6.38;;;3.40;;
56073;SDS011;41950;55.840;37.442;2023-08-08T04:39:00;4.45;;;3.05;;
56073;SDS011;41950;55.840;37.442;2023-08-08T04:41:25;6.10;;;3.50;;
56073;SDS011;41950;55.840;37.442;2023-08-08T04:43:51;6.88;;;3.67;;
56073;SDS011;41950;55.840;37.442;2023-08-08T04:46:17;5.63;;;3.20;;
56073;SDS011;41950;55.840;37.442;2023-08-08T04:48:45;6.72;;;3.40;;
56073;SDS011;41950;55.840;37.442;2023-08-08T04:51:11;5.85;;;3.63;;
56073;SDS011;41950;55.840;37.442;2023-08-08T04:53:36;5.57;;;4.97;;
56073;SDS011;41950;55.840;37.442;2023-08-08T04:56:02;4.70;;;3.60;;
56073;SDS011;41950;55.840;37.442;2023-08-08T04:58:29;5.55;;;3.40;;
56073;SDS011;41950;55.840;37.442;2023-08-08T05:00:54;6.03;;;3.60;;
56073;SDS011;41950;55.840;37.442;2023-08-08T05:03:20;5.00;;;3.53;;
56073;SDS011;41950;55.840;37.442;2023-08-08T05:05:46;5.20;;;3.63;;
56073;SDS011;41950;55.840;37.442;2023-08-08T05:08:12;4.45;;;3.08;;
56073;SDS011;41950;55.840;37.442;2023-08-08T05:10:39;7.35;;;3.92;;
56073;SDS011;41950;55.840;37.442;2023-08-08T05:13:04;5.65;;;3.40;;
56073;SDS011;41950;55.840;37.442;2023-08-08T05:15:30;5.53;;;3.22;;
56073;SDS011;41950;55.840;37.442;2023-08-08T05:17:56;5.25;;;3.40;;
56073;SDS011;41950;55.840;37.442;2023-08-08T05:20:22;6.22;;;4.13;;
56073;SDS011;41950;55.840;37.442;2023-08-08T05:22:48;6.18;;;3.90;;
56073;SDS011;41950;55.840;37.442;2023-08-08T05:25:14;7.63;;;3.97;;
56073;SDS011;41950;55.840;37.442;2023-08-08T05:27:39;7.55;;;4.03;;
56073;SDS011;41950;55.840;37.442;2023-08-08T05:30:05;7.30;;;3.97;;
56073;SDS011;41950;55.840;37.442;2023-08-08T05:32:31;4.97;;;4.30;;
56073;SDS011;41950;55.840;37.442;2023-08-08T05:34:57;8.02;;;4.40;;
56073;SDS011;41950;55.840;37.442;2023-08-08T05:37:23;7.35;;;4.40;;
56073;SDS011;41950;55.840;37.442;2023-08-08T05:39:49;4.97;;;4.22;;
56073;SDS011;41950;55.840;37.442;2023-08-08T05:42:15;8.27;;;4.90;;
56073;SDS011;41950;55.840;37.442;2023-08-08T05:44:41;8.73;;;4.63;;
56073;SDS011;41950;55.840;37.442;2023-08-08T05:47:07;6.07;;;4.45;;
56073;SDS011;41950;55.840;37.442;2023-08-08T05:49:33;5.22;;;3.90;;
56073;SDS011;41950;55.840;37.442;2023-08-08T05:51:59;6.05;;;4.30;;
56073;SDS011;41950;55.840;37.442;2023-08-08T05:54:25;7.05;;;4.45;;
56073;SDS011;41950;55.840;37.442;2023-08-08T05:56:50;7.35;;;5.60;;
56073;SDS011;41950;55.840;37.442;2023-08-08T05:59:16;5.93;;;4.35;;
56073;SDS011;41950;55.840;37.442;2023-08-08T06:01:42;7.70;;;4.47;;
56073;SDS011;41950;55.840;37.442;2023-08-08T06:04:07;6.38;;;4.47;;
56073;SDS011;41950;55.840;37.442;2023-08-08T06:06:33;7.55;;;4.63;;
56073;SDS011;41950;55.840;37.442;2023-08-08T06:08:58;7.32;;;3.88;;
56073;SDS011;41950;55.840;37.442;2023-08-08T06:11:24;5.88;;;3.83;;
56073;SDS011;41950;55.840;37.442;2023-08-08T06:13:50;6.97;;;4.30;;
56073;SDS011;41950;55.840;37.442;2023-08-08T06:16:15;6.85;;;4.05;;
56073;SDS011;41950;55.840;37.442;2023-08-08T06:18:41;7.80;;;4.28;;
56073;SDS011;41950;55.840;37.442;2023-08-08T06:21:07;6.25;;;4.35;;
56073;SDS011;41950;55.840;37.442;2023-08-08T06:23:33;7.28;;;3.88;;
56073;SDS011;41950;55.840;37.442;2023-08-08T06:25:58;6.85;;;4.60;;
56073;SDS011;41950;55.840;37.442;2023-08-08T06:28:24;5.97;;;3.95;;
56073;SDS011;41950;55.840;37.442;2023-08-08T06:30:50;7.40;;;4.00;;
56073;SDS011;41950;55.840;37.442;2023-08-08T06:33:16;7.20;;;4.00;;
56073;SDS011;41950;55.840;37.442;2023-08-08T06:35:41;7.07;;;4.28;;
56073;SDS011;41950;55.840;37.442;2023-08-08T06:38:07;5.53;;;4.20;;
56073;SDS011;41950;55.840;37.442;2023-08-08T06:40:34;6.78;;;4.18;;
56073;SDS011;41950;55.840;37.442;2023-08-08T06:42:59;6.18;;;4.53;;
56073;SDS011;41950;55.840;37.442;2023-08-08T06:45:25;6.22;;;4.40;;
56073;SDS011;41950;55.840;37.442;2023-08-08T06:47:51;7.05;;;4.63;;
56073;SDS011;41950;55.840;37.442;2023-08-08T06:50:16;6.85;;;4.40;;
56073;SDS011;41950;55.840;37.442;2023-08-08T06:52:43;8.45;;;4.57;;
56073;SDS011;41950;55.840;37.442;2023-08-08T06:55:08;8.02;;;4.40;;
56073;SDS011;41950;55.840;37.442;2023-08-08T06:57:35;8.43;;;4.80;;
56073;SDS011;41950;55.840;37.442;2023-08-08T07:00:01;6.75;;;4.00;;
56073;SDS011;41950;55.840;37.442;2023-08-08T07:02:32;7.20;;;4.30;;
56073;SDS011;41950;55.840;37.442;2023-08-08T07:04:58;6.72;;;4.20;;
56073;SDS011;41950;55.840;37.442;2023-08-08T07:07:24;8.80;;;4.70;;
56073;SDS011;41950;55.840;37.442;2023-08-08T07:09:50;7.20;;;3.90;;
56073;SDS011;41950;55.840;37.442;2023-08-08T07:12:15;7.53;;;4.10;;
56073;SDS011;41950;55.840;37.442;2023-08-08T07:14:41;7.10;;;4.28;;
56073;SDS011;41950;55.840;37.442;2023-08-08T07:17:07;6.40;;;4.18;;
56073;SDS011;41950;55.840;37.442;2023-08-08T07:19:33;6.75;;;4.43;;
56073;SDS011;41950;55.840;37.442;2023-08-08T07:21:58;7.82;;;4.53;;
56073;SDS011;41950;55.840;37.442;2023-08-08T07:24:24;7.75;;;4.82;;
56073;SDS011;41950;55.840;37.442;2023-08-08T07:26:57;8.68;;;4.35;;
56073;SDS011;41950;55.840;37.442;2023-08-08T07:29:24;6.57;;;4.75;;
56073;SDS011;41950;55.840;37.442;2023-08-08T07:31:51;8.48;;;4.53;;
56073;SDS011;41950;55.840;37.442;2023-08-08T07:34:20;8.82;;;4.90;;
56073;SDS011;41950;55.840;37.442;2023-08-08T07:36:46;6.95;;;4.60;;
56073;SDS011;41950;55.840;37.442;2023-08-08T07:39:12;9.77;;;4.72;;
56073;SDS011;41950;55.840;37.442;2023-08-08T07:41:38;8.27;;;4.60;;
56073;SDS011;41950;55.840;37.442;2023-08-08T07:44:04;8.02;;;4.65;;
56073;SDS011;41950;55.840;37.442;2023-08-08T07:46:30;7.75;;;4.60;;
56073;SDS011;41950;55.840;37.442;2023-08-08T07:48:56;9.02;;;5.43;;
56073;SDS011;41950;55.840;37.442;2023-08-08T07:51:25;8.10;;;5.13;;
56073;SDS011;41950;55.840;37.442;2023-08-08T07:53:50;8.73;;;5.25;;
56073;SDS011;41950;55.840;37.442;2023-08-08T07:56:16;8.35;;;5.03;;
56073;SDS011;41950;55.840;37.442;2023-08-08T07:58:42;8.40;;;4.68;;
56073;SDS011;41950;55.840;37.442;2023-08-08T08:01:08;7.22;;;5.18;;
56073;SDS011;41950;55.840;37.442;2023-08-08T08:03:33;9.00;;;4.80;;
56073;SDS011;41950;55.840;37.442;2023-08-08T08:05:59;7.60;;;5.00;;
56073;SDS011;41950;55.840;37.442;2023-08-08T08:08:25;12.18;;;5.68;;
56073;SDS011;41950;55.840;37.442;2023-08-08T08:10:50;11.27;;;5.75;;
56073;SDS011;41950;55.840;37.442;2023-08-08T08:13:17;9.80;;;5.63;;
56073;SDS011;41950;55.840;37.442;2023-08-08T08:15:43;10.07;;;5.32;;
56073;SDS011;41950;55.840;37.442;2023-08-08T08:18:08;10.07;;;5.72;;
56073;SDS011;41950;55.840;37.442;2023-08-08T08:20:36;9.07;;;5.53;;
56073;SDS011;41950;55.840;37.442;2023-08-08T08:23:02;7.85;;;5.22;;
56073;SDS011;41950;55.840;37.442;2023-08-08T08:25:27;7.18;;;5.72;;
56073;SDS011;41950;55.840;37.442;2023-08-08T08:27:53;7.57;;;5.72;;
56073;SDS011;41950;55.840;37.442;2023-08-08T08:30:19;9.90;;;6.38;;
56073;SDS011;41950;55.840;37.442;2023-08-08T08:32:45;8.00;;;6.00;;
56073;SDS011;41950;55.840;37.442;2023-08-08T08:35:10;7.60;;;5.90;;
56073;SDS011;41950;55.840;37.442;2023-08-08T08:37:38;9.18;;;5.60;;
56073;SDS011;41950;55.840;37.442;2023-08-08T08:40:04;9.07;;;6.32;;
56073;SDS011;41950;55.840;37.442;2023-08-08T08:42:32;9.57;;;6.35;;
56073;SDS011;41950;55.840;37.442;2023-08-08T08:44:58;11.38;;;6.22;;
56073;SDS011;41950;55.840;37.442;2023-08-08T08:47:32;7.95;;;5.55;;
56073;SDS011;41950;55.840;37.442;2023-08-08T08:50:01;8.93;;;5.75;;
56073;SDS011;41950;55.840;37.442;2023-08-08T08:52:31;9.40;;;5.77;;
56073;SDS011;41950;55.840;37.442;2023-08-08T08:54:58;11.07;;;6.43;;
56073;SDS011;41950;55.840;37.442;2023-08-08T08:57:23;9.48;;;6.18;;
56073;SDS011;41950;55.840;37.442;2023-08-08T08:59:50;8.32;;;5.78;;
56073;SDS011;41950;55.840;37.442;2023-08-08T09:02:16;7.15;;;5.82;;
56073;SDS011;41950;55.840;37.442;2023-08-08T09:04:46;7.45;;;5.63;;
56073;SDS011;41950;55.840;37.442;2023-08-08T09:07:12;8.15;;;6.30;;
56073;SDS011;41950;55.840;37.442;2023-08-08T09:09:38;10.80;;;5.47;;
56073;SDS011;41950;55.840;37.442;2023-08-08T09:12:04;9.35;;;5.70;;
56073;SDS011;41950;55.840;37.442;2023-08-08T09:14:31;10.18;;;6.25;;
56073;SDS011;41950;55.840;37.442;2023-08-08T09:16:57;10.48;;;6.05;;
56073;SDS011;41950;55.840;37.442;2023-08-08T09:19:23;7.32;;;5.10;;
56073;SDS011;41950;55.840;37.442;2023-08-08T09:21:49;9.68;;;6.50;;
56073;SDS011;41950;55.840;37.442;2023-08-08T09:24:16;11.32;;;6.97;;
56073;SDS011;41950;55.840;37.442;2023-08-08T09:26:44;11.23;;;6.85;;
56073;SDS011;41950;55.840;37.442;2023-08-08T09:29:12;8.98;;;7.35;;
56073;SDS011;41950;55.840;37.442;2023-08-08T09:31:40;10.95;;;8.00;;
56073;SDS011;41950;55.840;37.442;2023-08-08T09:34:06;10.30;;;7.88;;
56073;SDS011;41950;55.840;37.442;2023-08-08T09:36:32;9.43;;;6.88;;
56073;SDS011;41950;55.840;37.442;2023-08-08T09:39:00;10.10;;;7.05;;
56073;SDS011;41950;55.840;37.442;2023-08-08T09:41:27;8.43;;;6.88;;
56073;SDS011;41950;55.840;37.442;2023-08-08T09:43:53;11.27;;;8.00;;
56073;SDS011;41950;55.840;37.442;2023-08-08T09:46:19;10.35;;;7.45;;
56073;SDS011;41950;55.840;37.442;2023-08-08T09:48:46;10.77;;;7.30;;
56073;SDS011;41950;55.840;37.442;2023-08-08T09:51:12;8.10;;;6.43;;
56073;SDS011;41950;55.840;37.442;2023-08-08T09:53:38;8.90;;;5.75;;
56073;SDS011;41950;55.840;37.442;2023-08-08T09:56:05;10.23;;;6.60;;
56073;SDS011;41950;55.840;37.442;2023-08-08T09:58:31;8.73;;;6.90;;
56073;SDS011;41950;55.840;37.442;2023-08-08T10:00:58;11.55;;;6.95;;
56073;SDS011;41950;55.840;37.442;2023-08-08T10:03:24;9.65;;;6.80;;
56073;SDS011;41950;55.840;37.442;2023-08-08T10:05:50;12.18;;;6.75;;
56073;SDS011;41950;55.840;37.442;2023-08-08T10:08:16;11.30;;;6.95;;
56073;SDS011;41950;55.840;37.442;2023-08-08T10:10:46;11.10;;;6.78;;
56073;SDS011;41950;55.840;37.442;2023-08-08T10:13:23;11.45;;;6.78;;
56073;SDS011;41950;55.840;37.442;2023-08-08T10:15:50;10.27;;;6.40;;
56073;SDS011;41950;55.840;37.442;2023-08-08T10:18:18;12.13;;;6.88;;
56073;SDS011;41950;55.840;37.442;2023-08-08T10:20:46;12.70;;;7.15;;
56073;SDS011;41950;55.840;37.442;2023-08-08T10:23:19;10.98;;;8.20;;
56073;SDS011;41950;55.840;37.442;2023-08-08T10:25:46;12.15;;;8.10;;
56073;SDS011;41950;55.840;37.442;2023-08-08T10:28:19;10.98;;;7.60;;
56073;SDS011;41950;55.840;37.442;2023-08-08T10:30:47;10.85;;;8.38;;
56073;SDS011;41950;55.840;37.442;2023-08-08T10:33:18;10.75;;;7.53;;
56073;SDS011;41950;55.840;37.442;2023-08-08T10:38:38;10.90;;;6.75;;
56073;SDS011;41950;55.840;37.442;2023-08-08T10:41:08;10.15;;;7.55;;
56073;SDS011;41950;55.840;37.442;2023-08-08T10:43:35;10.73;;;7.88;;
56073;SDS011;41950;55.840;37.442;2023-08-08T10:46:01;12.50;;;8.20;;
56073;SDS011;41950;55.840;37.442;2023-08-08T10:48:28;13.80;;;8.50;;
56073;SDS011;41950;55.840;37.442;2023-08-08T10:50:54;12.98;;;7.93;;
56073;SDS011;41950;55.840;37.442;2023-08-08T10:53:27;12.15;;;8.00;;
56073;SDS011;41950;55.840;37.442;2023-08-08T10:56:01;12.65;;;7.78;;
56073;SDS011;41950;55.840;37.442;2023-08-08T10:58:39;12.63;;;7.60;;
56073;SDS011;41950;55.840;37.442;2023-08-08T11:01:07;11.75;;;7.75;;
56073;SDS011;41950;55.840;37.442;2023-08-08T11:03:38;11.63;;;8.02;;
56073;SDS011;41950;55.840;37.442;2023-08-08T11:06:08;12.48;;;7.45;;
56073;SDS011;41950;55.840;37.442;2023-08-08T11:08:35;10.48;;;7.30;;
56073;SDS011;41950;55.840;37.442;2023-08-08T11:11:04;13.55;;;7.80;;
56073;SDS011;41950;55.840;37.442;2023-08-08T11:13:31;10.00;;;6.70;;
56073;SDS011;41950;55.840;37.442;2023-08-08T11:15:57;11.85;;;7.30;;
56073;SDS011;41950;55.840;37.442;2023-08-08T11:18:23;8.30;;;6.53;;
56073;SDS011;41950;55.840;37.442;2023-08-08T11:20:49;10.45;;;6.70;;
56073;SDS011;41950;55.840;37.442;2023-08-08T11:23:15;9.15;;;6.70;;
56073;SDS011;41950;55.840;37.442;2023-08-08T11:25:42;8.57;;;5.95;;
56073;SDS011;41950;55.840;37.442;2023-08-08T11:28:10;7.57;;;5.50;;
56073;SDS011;41950;55.840;37.442;2023-08-08T11:30:38;9.52;;;5.78;;
56073;SDS011;41950;55.840;37.442;2023-08-08T11:33:05;9.52;;;6.47;;
56073;SDS011;41950;55.840;37.442;2023-08-08T11:35:32;9.75;;;6.00;;
56073;SDS011;41950;55.840;37.442;2023-08-08T11:37:59;10.45;;;7.32;;
56073;SDS011;41950;55.840;37.442;2023-08-08T11:40:26;10.63;;;7.80;;
56073;SDS011;41950;55.840;37.442;2023-08-08T11:42:54;9.30;;;6.38;;
56073;SDS011;41950;55.840;37.442;2023-08-08T11:45:22;10.18;;;6.53;;
56073;SDS011;41950;55.840;37.442;2023-08-08T11:47:51;10.32;;;6.18;;
56073;SDS011;41950;55.840;37.442;2023-08-08T11:50:19;8.23;;;6.55;;
56073;SDS011;41950;55.840;37.442;2023-08-08T11:52:48;9.70;;;6.10;;
56073;SDS011;41950;55.840;37.442;2023-08-08T11:55:14;11.43;;;6.70;;
56073;SDS011;41950;55.840;37.442;2023-08-08T11:57:39;11.43;;;6.75;;
56073;SDS011;41950;55.840;37.442;2023-08-08T12:00:09;9.48;;;7.47;;
56073;SDS011;41950;55.840;37.442;2023-08-08T12:02:39;8.70;;;6.50;;
56073;SDS011;41950;55.840;37.442;2023-08-08T12:05:11;10.38;;;7.35;;
56073;SDS011;41950;55.840;37.442;2023-08-08T12:07:38;13.23;;;7.53;;
56073;SDS011;41950;55.840;37.442;2023-08-08T12:10:13;10.30;;;7.90;;
56073;SDS011;41950;55.840;37.442;2023-08-08T12:12:40;9.20;;;7.40;;
56073;SDS011;41950;55.840;37.442;2023-08-08T12:15:06;9.20;;;7.25;;
56073;SDS011;41950;55.840;37.442;2023-08-08T12:17:32;9.43;;;7.07;;
56073;SDS011;41950;55.840;37.442;2023-08-08T12:20:02;10.90;;;7.90;;
56073;SDS011;41950;55.840;37.442;2023-08-08T12:22:31;9.88;;;8.85;;
56073;SDS011;41950;55.840;37.442;2023-08-08T12:24:57;12.20;;;9.15;;
56073;SDS011;41950;55.840;37.442;2023-08-08T12:27:23;11.18;;;9.38;;
56073;SDS011;41950;55.840;37.442;2023-08-08T12:29:48;10.15;;;8.90;;
56073;SDS011;41950;55.840;37.442;2023-08-08T12:32:14;12.25;;;8.13;;
56073;SDS011;41950;55.840;37.442;2023-08-08T12:34:40;13.27;;;8.30;;
56073;SDS011;41950;55.840;37.442;2023-08-08T12:37:06;11.02;;;7.55;;
56073;SDS011;41950;55.840;37.442;2023-08-08T12:39:31;10.70;;;7.82;;
56073;SDS011;41950;55.840;37.442;2023-08-08T12:41:57;11.30;;;7.53;;
56073;SDS011;41950;55.840;37.442;2023-08-08T12:44:23;10.57;;;8.40;;
56073;SDS011;41950;55.840;37.442;2023-08-08T12:46:49;12.10;;;7.82;;
56073;SDS011;41950;55.840;37.442;2023-08-08T12:49:14;11.15;;;7.97;;
56073;SDS011;41950;55.840;37.442;2023-08-08T12:51:40;11.32;;;7.97;;
56073;SDS011;41950;55.840;37.442;2023-08-08T12:54:06;11.60;;;7.75;;
56073;SDS011;41950;55.840;37.442;2023-08-08T12:56:32;11.98;;;7.88;;
56073;SDS011;41950;55.840;37.442;2023-08-08T12:58:57;11.02;;;8.05;;
56073;SDS011;41950;55.840;37.442;2023-08-08T13:01:23;11.90;;;8.43;;
56073;SDS011;41950;55.840;37.442;2023-08-08T13:03:50;14.57;;;8.80;;
56073;SDS011;41950;55.840;37.442;2023-08-08T13:06:16;12.20;;;9.05;;
56073;SDS011;41950;55.840;37.442;2023-08-08T13:08:41;12.88;;;8.30;;
56073;SDS011;41950;55.840;37.442;2023-08-08T13:11:07;12.90;;;9.10;;
56073;SDS011;41950;55.840;37.442;2023-08-08T13:13:33;11.95;;;10.00;;
56073;SDS011;41950;55.840;37.442;2023-08-08T13:15:58;10.20;;;8.95;;
56073;SDS011;41950;55.840;37.442;2023-08-08T13:18:24;12.82;;;8.85;;
56073;SDS011;41950;55.840;37.442;2023-08-08T13:20:50;15.43;;;9.27;;
56073;SDS011;41950;55.840;37.442;2023-08-08T13:23:15;10.48;;;9.20;;
56073;SDS011;41950;55.840;37.442;2023-08-08T13:25:41;10.80;;;9.23;;
56073;SDS011;41950;55.840;37.442;2023-08-08T13:28:07;14.23;;;9.30;;
56073;SDS011;41950;55.840;37.442;2023-08-08T13:30:32;11.25;;;8.68;;
56073;SDS011;41950;55.840;37.442;2023-08-08T13:32:59;10.75;;;8.45;;
56073;SDS011;41950;55.840;37.442;2023-08-08T13:35:25;14.75;;;8.70;;
56073;SDS011;41950;55.840;37.442;2023-08-08T13:37:51;10.05;;;8.30;;
56073;SDS011;41950;55.840;37.442;2023-08-08T13:40:18;8.18;;;5.35;;
56073;SDS011;41950;55.840;37.442;2023-08-08T13:42:45;10.48;;;8.05;;
56073;SDS011;41950;55.840;37.442;2023-08-08T13:45:19;10.63;;;9.00;;
56073;SDS011;41950;55.840;37.442;2023-08-08T13:47:46;11.82;;;8.52;;
56073;SDS011;41950;55.840;37.442;2023-08-08T13:50:15;10.30;;;8.90;;
56073;SDS011;41950;55.840;37.442;2023-08-08T13:52:41;12.02;;;8.05;;
56073;SDS011;41950;55.840;37.442;2023-08-08T13:55:07;12.43;;;8.88;;
56073;SDS011;41950;55.840;37.442;2023-08-08T13:57:34;12.98;;;8.52;;
56073;SDS011;41950;55.840;37.442;2023-08-08T14:00:00;11.70;;;10.23;;
56073;SDS011;41950;55.840;37.442;2023-08-08T14:02:29;13.48;;;8.68;;
56073;SDS011;41950;55.840;37.442;2023-08-08T14:04:55;12.48;;;9.02;;
56073;SDS011;41950;55.840;37.442;2023-08-08T14:07:21;10.20;;;8.05;;
56073;SDS011;41950;55.840;37.442;2023-08-08T14:09:46;12.40;;;7.97;;
56073;SDS011;41950;55.840;37.442;2023-08-08T14:12:12;12.93;;;8.80;;
56073;SDS011;41950;55.840;37.442;2023-08-08T14:14:38;13.23;;;9.18;;
56073;SDS011;41950;55.840;37.442;2023-08-08T14:17:04;11.73;;;9.40;;
56073;SDS011;41950;55.840;37.442;2023-08-08T14:19:29;12.73;;;8.88;;
56073;SDS011;41950;55.840;37.442;2023-08-08T14:21:56;10.57;;;9.40;;
56073;SDS011;41950;55.840;37.442;2023-08-08T14:24:22;11.63;;;8.52;;
56073;SDS011;41950;55.840;37.442;2023-08-08T14:26:48;11.27;;;8.93;;
56073;SDS011;41950;55.840;37.442;2023-08-08T14:29:13;10.75;;;8.45;;
56073;SDS011;41950;55.840;37.442;2023-08-08T14:31:39;14.13;;;8.15;;